EFLP

Lappeenranta Airport

Lappeenranta, Finland
METAR EFLP 161850Z AUTO 29002KT 0350 R06/0725V1400N R24/P1500N BCFG BKN011 07/07 Q1020
Observed Flight Rules
Oct-16 @ 18:50 UTC (23 minutes ago) Instrument Flight Rules
Wind Visibility Clouds Conditions
290° at 2 knots 354 meters
  • Broken at 1,100' AGL
  • Patches of
  • Fog
Temperatures Readings
Current 7°C / 45°F
Dewpoint 7°C / 45°F
Humidity 100%
Altimeter 30.12" Hg
Pressure 1020 hPa
Elevation 106
METAR EFLP 161850Z AUTO 29002KT 0350 R06/0725V1400N R24/P1500N BCFG BKN011 07/07 Q1020
Observed Flight Rules
Oct-16 @ 18:50 UTC
(23 minutes ago)
LIFR
Wind Visibility
290° at 2 knots 354 meters
Clouds
  • Broken at 1,100' AGL
Conditions
  • Patches of
  • Fog
Temperature Dewpoint
7°C / 45°F 7°C / 45°F
Humidity Altimeter Pressure
100% 30.12" Hg 1020 hPa